sensor_id;sensor_type;location;lat;lon;timestamp;P1;durP1;ratioP1;P2;durP2;ratioP2
4885;SDS011;2457;51.788;6.136;2023-03-29T00:01:35;4.80;;;2.03;;
4885;SDS011;2457;51.788;6.136;2023-03-29T00:04:04;5.93;;;2.07;;
4885;SDS011;2457;51.788;6.136;2023-03-29T00:06:31;7.47;;;2.03;;
4885;SDS011;2457;51.788;6.136;2023-03-29T00:08:59;4.43;;;1.93;;
4885;SDS011;2457;51.788;6.136;2023-03-29T00:11:28;10.17;;;2.10;;
4885;SDS011;2457;51.788;6.136;2023-03-29T00:13:55;4.73;;;1.80;;
4885;SDS011;2457;51.788;6.136;2023-03-29T00:16:22;4.50;;;1.90;;
4885;SDS011;2457;51.788;6.136;2023-03-29T00:18:50;5.83;;;2.07;;
4885;SDS011;2457;51.788;6.136;2023-03-29T00:21:17;7.13;;;2.03;;
4885;SDS011;2457;51.788;6.136;2023-03-29T00:23:44;6.90;;;2.10;;
4885;SDS011;2457;51.788;6.136;2023-03-29T00:26:11;4.87;;;2.13;;
4885;SDS011;2457;51.788;6.136;2023-03-29T00:28:39;4.20;;;2.07;;
4885;SDS011;2457;51.788;6.136;2023-03-29T00:31:07;5.13;;;1.70;;
4885;SDS011;2457;51.788;6.136;2023-03-29T00:33:35;5.03;;;1.90;;
4885;SDS011;2457;51.788;6.136;2023-03-29T00:36:02;8.73;;;2.23;;
4885;SDS011;2457;51.788;6.136;2023-03-29T00:38:30;5.60;;;2.13;;
4885;SDS011;2457;51.788;6.136;2023-03-29T00:40:57;5.83;;;2.73;;
4885;SDS011;2457;51.788;6.136;2023-03-29T00:43:25;7.70;;;2.20;;
4885;SDS011;2457;51.788;6.136;2023-03-29T00:45:52;4.47;;;2.13;;
4885;SDS011;2457;51.788;6.136;2023-03-29T00:48:25;5.03;;;2.20;;
4885;SDS011;2457;51.788;6.136;2023-03-29T00:50:51;8.60;;;2.03;;
4885;SDS011;2457;51.788;6.136;2023-03-29T00:53:20;5.03;;;2.40;;
4885;SDS011;2457;51.788;6.136;2023-03-29T00:58:19;4.70;;;2.20;;
4885;SDS011;2457;51.788;6.136;2023-03-29T01:00:51;7.50;;;2.90;;
4885;SDS011;2457;51.788;6.136;2023-03-29T01:03:18;7.00;;;2.73;;
4885;SDS011;2457;51.788;6.136;2023-03-29T01:05:53;5.93;;;2.40;;
4885;SDS011;2457;51.788;6.136;2023-03-29T01:08:30;7.40;;;2.67;;
4885;SDS011;2457;51.788;6.136;2023-03-29T01:11:00;5.83;;;2.60;;
4885;SDS011;2457;51.788;6.136;2023-03-29T01:13:31;5.50;;;2.20;;
4885;SDS011;2457;51.788;6.136;2023-03-29T01:15:56;6.47;;;2.60;;
4885;SDS011;2457;51.788;6.136;2023-03-29T01:18:24;6.20;;;2.33;;
4885;SDS011;2457;51.788;6.136;2023-03-29T01:20:56;5.03;;;2.00;;
4885;SDS011;2457;51.788;6.136;2023-03-29T01:23:29;5.30;;;2.67;;
4885;SDS011;2457;51.788;6.136;2023-03-29T01:29:14;7.27;;;2.43;;
4885;SDS011;2457;51.788;6.136;2023-03-29T01:31:19;6.13;;;1.87;;
4885;SDS011;2457;51.788;6.136;2023-03-29T01:33:50;6.03;;;2.13;;
4885;SDS011;2457;51.788;6.136;2023-03-29T01:36:23;4.50;;;1.83;;
4885;SDS011;2457;51.788;6.136;2023-03-29T01:38:51;5.57;;;2.37;;
4885;SDS011;2457;51.788;6.136;2023-03-29T01:41:19;4.83;;;2.10;;
4885;SDS011;2457;51.788;6.136;2023-03-29T01:44:05;8.63;;;2.20;;
4885;SDS011;2457;51.788;6.136;2023-03-29T01:46:39;6.10;;;2.27;;
4885;SDS011;2457;51.788;6.136;2023-03-29T01:49:10;7.13;;;2.03;;
4885;SDS011;2457;51.788;6.136;2023-03-29T01:51:38;9.87;;;2.40;;
4885;SDS011;2457;51.788;6.136;2023-03-29T01:54:06;4.50;;;1.93;;
4885;SDS011;2457;51.788;6.136;2023-03-29T01:56:35;4.60;;;2.00;;
4885;SDS011;2457;51.788;6.136;2023-03-29T01:59:04;7.80;;;2.33;;
4885;SDS011;2457;51.788;6.136;2023-03-29T02:01:37;4.67;;;2.40;;
4885;SDS011;2457;51.788;6.136;2023-03-29T02:04:02;5.37;;;2.07;;
4885;SDS011;2457;51.788;6.136;2023-03-29T02:06:30;10.50;;;2.63;;
4885;SDS011;2457;51.788;6.136;2023-03-29T02:08:59;4.70;;;1.80;;
4885;SDS011;2457;51.788;6.136;2023-03-29T02:11:28;4.40;;;1.73;;
4885;SDS011;2457;51.788;6.136;2023-03-29T02:13:55;4.70;;;2.03;;
4885;SDS011;2457;51.788;6.136;2023-03-29T02:16:23;8.73;;;2.10;;
4885;SDS011;2457;51.788;6.136;2023-03-29T02:18:50;5.93;;;2.50;;
4885;SDS011;2457;51.788;6.136;2023-03-29T02:21:39;7.17;;;2.17;;
4885;SDS011;2457;51.788;6.136;2023-03-29T02:24:05;4.60;;;1.67;;
4885;SDS011;2457;51.788;6.136;2023-03-29T02:26:34;6.07;;;2.30;;
4885;SDS011;2457;51.788;6.136;2023-03-29T02:29:02;5.53;;;2.07;;
4885;SDS011;2457;51.788;6.136;2023-03-29T02:31:43;4.13;;;2.00;;
4885;SDS011;2457;51.788;6.136;2023-03-29T02:36:52;6.90;;;2.23;;
4885;SDS011;2457;51.788;6.136;2023-03-29T02:39:19;5.47;;;1.73;;
4885;SDS011;2457;51.788;6.136;2023-03-29T02:41:48;5.93;;;1.97;;
4885;SDS011;2457;51.788;6.136;2023-03-29T02:44:18;5.07;;;1.80;;
4885;SDS011;2457;51.788;6.136;2023-03-29T02:46:48;4.00;;;1.97;;
4885;SDS011;2457;51.788;6.136;2023-03-29T02:49:16;4.27;;;2.27;;
4885;SDS011;2457;51.788;6.136;2023-03-29T02:51:43;4.43;;;1.90;;
4885;SDS011;2457;51.788;6.136;2023-03-29T02:54:14;4.67;;;1.93;;
4885;SDS011;2457;51.788;6.136;2023-03-29T02:56:44;7.37;;;2.20;;
4885;SDS011;2457;51.788;6.136;2023-03-29T02:59:11;5.23;;;2.30;;
4885;SDS011;2457;51.788;6.136;2023-03-29T03:01:39;4.40;;;1.97;;
4885;SDS011;2457;51.788;6.136;2023-03-29T03:04:08;4.97;;;1.80;;
4885;SDS011;2457;51.788;6.136;2023-03-29T03:06:36;5.70;;;2.03;;
4885;SDS011;2457;51.788;6.136;2023-03-29T03:09:04;5.43;;;1.93;;
4885;SDS011;2457;51.788;6.136;2023-03-29T03:11:32;5.93;;;2.43;;
4885;SDS011;2457;51.788;6.136;2023-03-29T03:13:59;5.47;;;2.23;;
4885;SDS011;2457;51.788;6.136;2023-03-29T03:16:27;4.73;;;2.30;;
4885;SDS011;2457;51.788;6.136;2023-03-29T03:18:54;4.90;;;1.97;;
4885;SDS011;2457;51.788;6.136;2023-03-29T03:21:21;4.30;;;1.87;;
4885;SDS011;2457;51.788;6.136;2023-03-29T03:23:49;4.80;;;1.97;;
4885;SDS011;2457;51.788;6.136;2023-03-29T03:26:17;6.97;;;2.07;;
4885;SDS011;2457;51.788;6.136;2023-03-29T03:28:44;5.20;;;1.90;;
4885;SDS011;2457;51.788;6.136;2023-03-29T03:31:12;6.00;;;2.30;;
4885;SDS011;2457;51.788;6.136;2023-03-29T03:33:39;4.87;;;1.97;;
4885;SDS011;2457;51.788;6.136;2023-03-29T03:36:07;5.37;;;1.70;;
4885;SDS011;2457;51.788;6.136;2023-03-29T03:38:35;5.20;;;2.00;;
4885;SDS011;2457;51.788;6.136;2023-03-29T03:41:03;5.90;;;2.50;;
4885;SDS011;2457;51.788;6.136;2023-03-29T03:43:32;5.27;;;2.00;;
4885;SDS011;2457;51.788;6.136;2023-03-29T03:45:59;10.87;;;2.13;;
4885;SDS011;2457;51.788;6.136;2023-03-29T03:48:27;4.57;;;1.70;;
4885;SDS011;2457;51.788;6.136;2023-03-29T03:50:56;5.10;;;1.90;;
4885;SDS011;2457;51.788;6.136;2023-03-29T03:53:23;7.40;;;1.80;;
4885;SDS011;2457;51.788;6.136;2023-03-29T03:55:52;7.33;;;2.20;;
4885;SDS011;2457;51.788;6.136;2023-03-29T03:58:21;10.13;;;2.20;;
4885;SDS011;2457;51.788;6.136;2023-03-29T04:00:49;8.40;;;2.53;;
4885;SDS011;2457;51.788;6.136;2023-03-29T04:03:17;7.67;;;2.27;;
4885;SDS011;2457;51.788;6.136;2023-03-29T04:05:45;6.10;;;2.50;;
4885;SDS011;2457;51.788;6.136;2023-03-29T04:08:12;4.90;;;2.00;;
4885;SDS011;2457;51.788;6.136;2023-03-29T04:10:40;5.40;;;2.10;;
4885;SDS011;2457;51.788;6.136;2023-03-29T04:13:07;4.47;;;2.03;;
4885;SDS011;2457;51.788;6.136;2023-03-29T04:15:34;6.10;;;2.20;;
4885;SDS011;2457;51.788;6.136;2023-03-29T04:18:03;4.80;;;1.90;;
4885;SDS011;2457;51.788;6.136;2023-03-29T04:20:32;5.67;;;2.53;;
4885;SDS011;2457;51.788;6.136;2023-03-29T04:22:59;5.33;;;2.00;;
4885;SDS011;2457;51.788;6.136;2023-03-29T04:25:27;5.13;;;2.00;;
4885;SDS011;2457;51.788;6.136;2023-03-29T04:27:54;5.83;;;2.13;;
4885;SDS011;2457;51.788;6.136;2023-03-29T04:30:22;5.97;;;2.57;;
4885;SDS011;2457;51.788;6.136;2023-03-29T04:32:49;5.73;;;2.13;;
4885;SDS011;2457;51.788;6.136;2023-03-29T04:35:16;4.40;;;1.80;;
4885;SDS011;2457;51.788;6.136;2023-03-29T04:37:44;5.77;;;2.30;;
4885;SDS011;2457;51.788;6.136;2023-03-29T04:40:11;4.57;;;2.40;;
4885;SDS011;2457;51.788;6.136;2023-03-29T04:42:40;4.70;;;2.30;;
4885;SDS011;2457;51.788;6.136;2023-03-29T04:45:13;5.87;;;2.37;;
4885;SDS011;2457;51.788;6.136;2023-03-29T04:47:42;8.20;;;2.43;;
4885;SDS011;2457;51.788;6.136;2023-03-29T04:50:11;4.85;;;2.10;;
4885;SDS011;2457;51.788;6.136;2023-03-29T04:52:39;6.80;;;2.40;;
4885;SDS011;2457;51.788;6.136;2023-03-29T04:55:06;5.27;;;1.90;;
4885;SDS011;2457;51.788;6.136;2023-03-29T04:57:34;6.30;;;2.40;;
4885;SDS011;2457;51.788;6.136;2023-03-29T05:00:02;5.70;;;2.00;;
4885;SDS011;2457;51.788;6.136;2023-03-29T05:02:31;5.47;;;2.20;;
4885;SDS011;2457;51.788;6.136;2023-03-29T05:04:59;8.37;;;2.27;;
4885;SDS011;2457;51.788;6.136;2023-03-29T05:07:26;7.50;;;2.50;;
4885;SDS011;2457;51.788;6.136;2023-03-29T05:09:53;6.10;;;2.30;;
4885;SDS011;2457;51.788;6.136;2023-03-29T05:12:21;5.47;;;2.37;;
4885;SDS011;2457;51.788;6.136;2023-03-29T05:14:48;7.07;;;2.50;;
4885;SDS011;2457;51.788;6.136;2023-03-29T05:17:15;5.20;;;2.17;;
4885;SDS011;2457;51.788;6.136;2023-03-29T05:19:42;4.70;;;1.90;;
4885;SDS011;2457;51.788;6.136;2023-03-29T05:22:10;7.27;;;2.57;;
4885;SDS011;2457;51.788;6.136;2023-03-29T05:24:37;4.97;;;2.13;;
4885;SDS011;2457;51.788;6.136;2023-03-29T05:27:04;5.13;;;2.33;;
4885;SDS011;2457;51.788;6.136;2023-03-29T05:29:31;7.73;;;2.80;;
4885;SDS011;2457;51.788;6.136;2023-03-29T05:31:59;5.73;;;2.13;;
4885;SDS011;2457;51.788;6.136;2023-03-29T05:34:26;4.57;;;2.20;;
4885;SDS011;2457;51.788;6.136;2023-03-29T05:36:54;9.17;;;2.20;;
4885;SDS011;2457;51.788;6.136;2023-03-29T05:39:23;6.00;;;2.67;;
4885;SDS011;2457;51.788;6.136;2023-03-29T05:41:51;4.93;;;2.30;;
4885;SDS011;2457;51.788;6.136;2023-03-29T05:44:19;9.07;;;2.83;;
4885;SDS011;2457;51.788;6.136;2023-03-29T05:46:47;5.37;;;2.40;;
4885;SDS011;2457;51.788;6.136;2023-03-29T05:49:14;5.00;;;2.07;;
4885;SDS011;2457;51.788;6.136;2023-03-29T05:51:41;5.40;;;2.60;;
4885;SDS011;2457;51.788;6.136;2023-03-29T05:54:10;8.97;;;2.47;;
4885;SDS011;2457;51.788;6.136;2023-03-29T05:56:38;8.27;;;2.30;;
4885;SDS011;2457;51.788;6.136;2023-03-29T05:59:05;6.50;;;2.10;;
4885;SDS011;2457;51.788;6.136;2023-03-29T06:01:33;6.50;;;2.00;;
4885;SDS011;2457;51.788;6.136;2023-03-29T06:04:01;6.97;;;3.00;;
4885;SDS011;2457;51.788;6.136;2023-03-29T06:06:29;5.90;;;2.37;;
4885;SDS011;2457;51.788;6.136;2023-03-29T06:08:56;4.93;;;2.20;;
4885;SDS011;2457;51.788;6.136;2023-03-29T06:11:24;4.70;;;2.20;;
4885;SDS011;2457;51.788;6.136;2023-03-29T06:13:51;5.87;;;2.00;;
4885;SDS011;2457;51.788;6.136;2023-03-29T06:16:19;5.30;;;2.10;;
4885;SDS011;2457;51.788;6.136;2023-03-29T06:18:46;4.33;;;1.93;;
4885;SDS011;2457;51.788;6.136;2023-03-29T06:21:14;6.20;;;2.10;;
4885;SDS011;2457;51.788;6.136;2023-03-29T06:23:41;6.00;;;2.07;;
4885;SDS011;2457;51.788;6.136;2023-03-29T06:26:09;9.83;;;2.30;;
4885;SDS011;2457;51.788;6.136;2023-03-29T06:28:36;5.77;;;2.00;;
4885;SDS011;2457;51.788;6.136;2023-03-29T06:31:03;8.23;;;2.37;;
4885;SDS011;2457;51.788;6.136;2023-03-29T06:33:31;6.80;;;2.60;;
4885;SDS011;2457;51.788;6.136;2023-03-29T06:35:59;5.30;;;2.27;;
4885;SDS011;2457;51.788;6.136;2023-03-29T06:38:27;4.60;;;2.00;;
4885;SDS011;2457;51.788;6.136;2023-03-29T06:41:01;7.10;;;2.10;;
4885;SDS011;2457;51.788;6.136;2023-03-29T06:43:28;5.50;;;1.90;;
4885;SDS011;2457;51.788;6.136;2023-03-29T06:45:57;7.10;;;2.27;;
4885;SDS011;2457;51.788;6.136;2023-03-29T06:48:25;4.17;;;1.90;;
4885;SDS011;2457;51.788;6.136;2023-03-29T06:50:52;6.90;;;2.20;;
4885;SDS011;2457;51.788;6.136;2023-03-29T06:53:19;5.97;;;2.27;;
4885;SDS011;2457;51.788;6.136;2023-03-29T06:55:48;5.17;;;2.00;;
4885;SDS011;2457;51.788;6.136;2023-03-29T06:58:17;4.80;;;1.93;;
4885;SDS011;2457;51.788;6.136;2023-03-29T07:00:45;4.93;;;2.03;;
4885;SDS011;2457;51.788;6.136;2023-03-29T07:03:12;6.07;;;2.77;;
4885;SDS011;2457;51.788;6.136;2023-03-29T07:05:41;7.10;;;2.57;;
4885;SDS011;2457;51.788;6.136;2023-03-29T07:08:10;5.97;;;2.23;;
4885;SDS011;2457;51.788;6.136;2023-03-29T07:10:40;5.10;;;2.13;;
4885;SDS011;2457;51.788;6.136;2023-03-29T07:13:08;4.63;;;1.73;;
4885;SDS011;2457;51.788;6.136;2023-03-29T07:15:40;6.30;;;2.17;;
4885;SDS011;2457;51.788;6.136;2023-03-29T07:18:09;5.10;;;2.43;;
4885;SDS011;2457;51.788;6.136;2023-03-29T07:20:37;6.63;;;2.70;;
4885;SDS011;2457;51.788;6.136;2023-03-29T07:23:05;7.90;;;2.60;;
4885;SDS011;2457;51.788;6.136;2023-03-29T07:25:34;5.00;;;1.80;;
4885;SDS011;2457;51.788;6.136;2023-03-29T07:28:02;4.60;;;2.17;;
4885;SDS011;2457;51.788;6.136;2023-03-29T07:30:29;6.50;;;2.47;;
4885;SDS011;2457;51.788;6.136;2023-03-29T07:32:57;6.63;;;2.93;;
4885;SDS011;2457;51.788;6.136;2023-03-29T07:35:26;5.57;;;2.43;;
4885;SDS011;2457;51.788;6.136;2023-03-29T07:37:54;10.60;;;2.30;;
4885;SDS011;2457;51.788;6.136;2023-03-29T07:40:21;6.47;;;3.10;;
4885;SDS011;2457;51.788;6.136;2023-03-29T07:42:52;5.40;;;2.23;;
4885;SDS011;2457;51.788;6.136;2023-03-29T07:45:21;6.93;;;2.13;;
4885;SDS011;2457;51.788;6.136;2023-03-29T07:47:49;5.60;;;2.37;;
4885;SDS011;2457;51.788;6.136;2023-03-29T07:50:16;8.27;;;2.53;;
4885;SDS011;2457;51.788;6.136;2023-03-29T07:52:43;8.43;;;2.63;;
4885;SDS011;2457;51.788;6.136;2023-03-29T07:55:12;4.43;;;2.00;;
4885;SDS011;2457;51.788;6.136;2023-03-29T07:57:39;5.07;;;2.10;;
4885;SDS011;2457;51.788;6.136;2023-03-29T08:00:07;4.97;;;2.30;;
4885;SDS011;2457;51.788;6.136;2023-03-29T08:02:36;8.90;;;2.40;;
4885;SDS011;2457;51.788;6.136;2023-03-29T08:05:03;5.40;;;2.47;;
4885;SDS011;2457;51.788;6.136;2023-03-29T08:07:31;4.80;;;2.30;;
4885;SDS011;2457;51.788;6.136;2023-03-29T08:09:59;6.60;;;1.97;;
4885;SDS011;2457;51.788;6.136;2023-03-29T08:12:26;7.43;;;2.77;;
4885;SDS011;2457;51.788;6.136;2023-03-29T08:14:53;13.00;;;2.57;;
4885;SDS011;2457;51.788;6.136;2023-03-29T08:17:20;5.43;;;2.47;;
4885;SDS011;2457;51.788;6.136;2023-03-29T08:19:48;7.60;;;2.83;;
4885;SDS011;2457;51.788;6.136;2023-03-29T08:22:15;5.37;;;2.70;;
4885;SDS011;2457;51.788;6.136;2023-03-29T08:24:42;13.77;;;2.70;;
4885;SDS011;2457;51.788;6.136;2023-03-29T08:27:09;10.27;;;3.17;;
4885;SDS011;2457;51.788;6.136;2023-03-29T08:29:36;6.13;;;2.60;;
4885;SDS011;2457;51.788;6.136;2023-03-29T08:32:04;8.57;;;3.07;;
4885;SDS011;2457;51.788;6.136;2023-03-29T08:34:32;5.87;;;2.50;;
4885;SDS011;2457;51.788;6.136;2023-03-29T08:37:01;5.30;;;2.63;;
4885;SDS011;2457;51.788;6.136;2023-03-29T08:39:29;7.17;;;2.90;;
4885;SDS011;2457;51.788;6.136;2023-03-29T08:49:49;5.97;;;2.70;;
4885;SDS011;2457;51.788;6.136;2023-03-29T08:52:30;6.07;;;3.00;;
4885;SDS011;2457;51.788;6.136;2023-03-29T08:54:57;6.00;;;2.63;;
4885;SDS011;2457;51.788;6.136;2023-03-29T08:57:35;9.07;;;2.80;;
4885;SDS011;2457;51.788;6.136;2023-03-29T08:59:59;7.63;;;3.20;;
4885;SDS011;2457;51.788;6.136;2023-03-29T09:02:29;7.87;;;2.97;;
4885;SDS011;2457;51.788;6.136;2023-03-29T09:04:57;7.97;;;3.00;;
4885;SDS011;2457;51.788;6.136;2023-03-29T09:07:25;8.87;;;2.70;;
4885;SDS011;2457;51.788;6.136;2023-03-29T09:09:53;7.50;;;2.80;;
4885;SDS011;2457;51.788;6.136;2023-03-29T09:12:23;6.93;;;3.20;;
4885;SDS011;2457;51.788;6.136;2023-03-29T09:14:52;7.87;;;3.03;;
4885;SDS011;2457;51.788;6.136;2023-03-29T09:22:30;5.80;;;2.27;;
4885;SDS011;2457;51.788;6.136;2023-03-29T09:25:12;7.83;;;3.30;;
4885;SDS011;2457;51.788;6.136;2023-03-29T09:27:39;5.87;;;2.70;;
4885;SDS011;2457;51.788;6.136;2023-03-29T09:30:26;11.37;;;3.17;;
4885;SDS011;2457;51.788;6.136;2023-03-29T09:32:44;7.33;;;3.10;;
4885;SDS011;2457;51.788;6.136;2023-03-29T09:35:12;10.57;;;3.40;;
4885;SDS011;2457;51.788;6.136;2023-03-29T09:37:44;13.20;;;3.10;;
4885;SDS011;2457;51.788;6.136;2023-03-29T09:40:14;9.70;;;3.27;;
4885;SDS011;2457;51.788;6.136;2023-03-29T09:42:42;6.30;;;3.40;;
4885;SDS011;2457;51.788;6.136;2023-03-29T09:45:10;8.37;;;3.37;;
4885;SDS011;2457;51.788;6.136;2023-03-29T09:47:39;6.63;;;2.70;;
4885;SDS011;2457;51.788;6.136;2023-03-29T09:50:10;8.40;;;3.57;;
4885;SDS011;2457;51.788;6.136;2023-03-29T09:52:37;8.70;;;3.20;;
4885;SDS011;2457;51.788;6.136;2023-03-29T09:55:05;7.37;;;3.33;;
4885;SDS011;2457;51.788;6.136;2023-03-29T09:57:33;6.87;;;3.27;;
4885;SDS011;2457;51.788;6.136;2023-03-29T10:00:00;6.30;;;3.10;;
4885;SDS011;2457;51.788;6.136;2023-03-29T10:02:30;8.73;;;3.27;;
4885;SDS011;2457;51.788;6.136;2023-03-29T10:04:57;7.43;;;3.23;;
4885;SDS011;2457;51.788;6.136;2023-03-29T10:07:32;6.83;;;3.20;;
4885;SDS011;2457;51.788;6.136;2023-03-29T10:09:54;6.23;;;2.90;;
4885;SDS011;2457;51.788;6.136;2023-03-29T10:12:22;6.93;;;3.30;;
4885;SDS011;2457;51.788;6.136;2023-03-29T10:14:51;6.50;;;3.03;;
4885;SDS011;2457;51.788;6.136;2023-03-29T10:17:25;8.63;;;3.30;;
4885;SDS011;2457;51.788;6.136;2023-03-29T10:20:02;12.37;;;3.70;;
4885;SDS011;2457;51.788;6.136;2023-03-29T10:22:35;7.50;;;3.33;;
4885;SDS011;2457;51.788;6.136;2023-03-29T10:25:03;5.50;;;2.70;;
4885;SDS011;2457;51.788;6.136;2023-03-29T10:27:32;7.63;;;3.30;;
4885;SDS011;2457;51.788;6.136;2023-03-29T10:30:07;7.80;;;3.30;;
4885;SDS011;2457;51.788;6.136;2023-03-29T10:32:34;23.37;;;4.77;;
4885;SDS011;2457;51.788;6.136;2023-03-29T10:37:47;8.33;;;2.80;;
4885;SDS011;2457;51.788;6.136;2023-03-29T10:40:05;6.80;;;3.07;;
4885;SDS011;2457;51.788;6.136;2023-03-29T10:42:32;7.43;;;3.60;;
4885;SDS011;2457;51.788;6.136;2023-03-29T10:44:59;7.83;;;3.67;;
4885;SDS011;2457;51.788;6.136;2023-03-29T10:47:30;11.50;;;3.70;;
4885;SDS011;2457;51.788;6.136;2023-03-29T10:49:56;7.00;;;3.60;;
4885;SDS011;2457;51.788;6.136;2023-03-29T10:52:28;6.50;;;3.10;;
4885;SDS011;2457;51.788;6.136;2023-03-29T10:54:55;11.87;;;3.33;;
4885;SDS011;2457;51.788;6.136;2023-03-29T10:57:32;11.30;;;3.43;;
4885;SDS011;2457;51.788;6.136;2023-03-29T11:00:06;6.43;;;2.60;;
4885;SDS011;2457;51.788;6.136;2023-03-29T11:02:36;5.93;;;3.00;;
4885;SDS011;2457;51.788;6.136;2023-03-29T11:07:55;6.33;;;2.87;;
4885;SDS011;2457;51.788;6.136;2023-03-29T11:13:07;5.50;;;2.60;;
4885;SDS011;2457;51.788;6.136;2023-03-29T11:15:21;9.20;;;3.37;;
4885;SDS011;2457;51.788;6.136;2023-03-29T11:17:49;8.17;;;3.17;;
4885;SDS011;2457;51.788;6.136;2023-03-29T11:20:18;7.73;;;2.93;;
4885;SDS011;2457;51.788;6.136;2023-03-29T11:22:48;8.80;;;3.03;;
4885;SDS011;2457;51.788;6.136;2023-03-29T11:25:38;11.43;;;3.73;;
4885;SDS011;2457;51.788;6.136;2023-03-29T11:27:54;6.13;;;3.20;;
4885;SDS011;2457;51.788;6.136;2023-03-29T11:30:20;7.00;;;3.13;;
4885;SDS011;2457;51.788;6.136;2023-03-29T11:43:30;8.43;;;3.50;;
4885;SDS011;2457;51.788;6.136;2023-03-29T11:46:28;6.47;;;3.20;;
4885;SDS011;2457;51.788;6.136;2023-03-29T11:48:30;11.33;;;3.47;;
4885;SDS011;2457;51.788;6.136;2023-03-29T11:51:02;6.70;;;3.37;;
4885;SDS011;2457;51.788;6.136;2023-03-29T11:53:30;6.00;;;3.07;;
4885;SDS011;2457;51.788;6.136;2023-03-29T11:56:00;7.33;;;3.30;;
4885;SDS011;2457;51.788;6.136;2023-03-29T11:58:32;7.30;;;3.90;;
4885;SDS011;2457;51.788;6.136;2023-03-29T12:01:04;7.70;;;3.73;;
4885;SDS011;2457;51.788;6.136;2023-03-29T12:03:35;7.00;;;3.33;;
4885;SDS011;2457;51.788;6.136;2023-03-29T12:06:09;8.70;;;3.83;;
4885;SDS011;2457;51.788;6.136;2023-03-29T12:08:47;8.43;;;3.97;;
4885;SDS011;2457;51.788;6.136;2023-03-29T12:11:25;8.10;;;3.70;;
4885;SDS011;2457;51.788;6.136;2023-03-29T12:13:53;9.07;;;3.80;;
4885;SDS011;2457;51.788;6.136;2023-03-29T12:16:23;8.20;;;3.83;;
4885;SDS011;2457;51.788;6.136;2023-03-29T12:18:51;8.90;;;3.70;;
4885;SDS011;2457;51.788;6.136;2023-03-29T12:21:19;9.90;;;3.83;;
4885;SDS011;2457;51.788;6.136;2023-03-29T12:23:47;11.03;;;3.37;;
4885;SDS011;2457;51.788;6.136;2023-03-29T12:26:30;6.90;;;3.50;;
4885;SDS011;2457;51.788;6.136;2023-03-29T12:31:45;8.23;;;3.97;;
4885;SDS011;2457;51.788;6.136;2023-03-29T12:39:17;6.93;;;3.60;;
4885;SDS011;2457;51.788;6.136;2023-03-29T12:41:46;9.70;;;4.27;;
4885;SDS011;2457;51.788;6.136;2023-03-29T12:44:15;7.33;;;3.60;;
4885;SDS011;2457;51.788;6.136;2023-03-29T12:46:43;10.90;;;3.57;;
4885;SDS011;2457;51.788;6.136;2023-03-29T12:49:14;8.43;;;4.20;;
4885;SDS011;2457;51.788;6.136;2023-03-29T12:51:42;13.43;;;3.90;;
4885;SDS011;2457;51.788;6.136;2023-03-29T12:54:20;8.83;;;4.00;;
4885;SDS011;2457;51.788;6.136;2023-03-29T13:02:17;9.43;;;3.60;;
4885;SDS011;2457;51.788;6.136;2023-03-29T13:04:47;9.20;;;3.90;;
4885;SDS011;2457;51.788;6.136;2023-03-29T13:07:04;9.43;;;3.97;;
4885;SDS011;2457;51.788;6.136;2023-03-29T13:09:45;8.50;;;4.13;;
4885;SDS011;2457;51.788;6.136;2023-03-29T13:14:32;6.03;;;3.10;;
4885;SDS011;2457;51.788;6.136;2023-03-29T13:17:06;9.53;;;3.70;;
4885;SDS011;2457;51.788;6.136;2023-03-29T13:19:33;5.97;;;3.10;;
4885;SDS011;2457;51.788;6.136;2023-03-29T13:22:06;11.33;;;3.80;;
4885;SDS011;2457;51.788;6.136;2023-03-29T13:24:37;8.17;;;3.50;;
4885;SDS011;2457;51.788;6.136;2023-03-29T13:29:35;6.50;;;3.23;;
4885;SDS011;2457;51.788;6.136;2023-03-29T13:32:10;7.63;;;3.60;;
4885;SDS011;2457;51.788;6.136;2023-03-29T13:34:39;8.07;;;3.40;;
4885;SDS011;2457;51.788;6.136;2023-03-29T13:37:07;10.07;;;3.73;;
4885;SDS011;2457;51.788;6.136;2023-03-29T13:39:34;9.03;;;3.87;;
4885;SDS011;2457;51.788;6.136;2023-03-29T13:42:06;7.20;;;3.43;;
4885;SDS011;2457;51.788;6.136;2023-03-29T13:44:41;7.97;;;3.50;;
4885;SDS011;2457;51.788;6.136;2023-03-29T13:49:57;13.10;;;3.27;;
4885;SDS011;2457;51.788;6.136;2023-03-29T13:52:26;7.67;;;3.20;;
4885;SDS011;2457;51.788;6.136;2023-03-29T13:55:03;9.17;;;3.43;;
4885;SDS011;2457;51.788;6.136;2023-03-29T13:57:51;6.83;;;3.10;;
4885;SDS011;2457;51.788;6.136;2023-03-29T14:00:27;10.87;;;3.27;;
4885;SDS011;2457;51.788;6.136;2023-03-29T14:02:50;11.80;;;3.73;;
4885;SDS011;2457;51.788;6.136;2023-03-29T14:05:23;5.73;;;3.00;;
4885;SDS011;2457;51.788;6.136;2023-03-29T14:07:51;9.70;;;3.30;;
4885;SDS011;2457;51.788;6.136;2023-03-29T14:10:31;8.20;;;4.50;;
4885;SDS011;2457;51.788;6.136;2023-03-29T14:12:47;9.53;;;3.73;;
4885;SDS011;2457;51.788;6.136;2023-03-29T14:15:26;6.40;;;3.47;;
4885;SDS011;2457;51.788;6.136;2023-03-29T14:17:56;7.57;;;3.70;;
4885;SDS011;2457;51.788;6.136;2023-03-29T14:20:24;11.40;;;3.57;;
4885;SDS011;2457;51.788;6.136;2023-03-29T14:22:51;7.20;;;3.50;;
4885;SDS011;2457;51.788;6.136;2023-03-29T14:25:19;7.70;;;3.60;;
4885;SDS011;2457;51.788;6.136;2023-03-29T14:27:47;7.30;;;3.23;;
4885;SDS011;2457;51.788;6.136;2023-03-29T14:30:16;6.77;;;2.70;;
4885;SDS011;2457;51.788;6.136;2023-03-29T14:32:44;7.73;;;3.20;;
4885;SDS011;2457;51.788;6.136;2023-03-29T14:35:11;7.70;;;3.73;;
4885;SDS011;2457;51.788;6.136;2023-03-29T14:37:38;7.40;;;3.00;;
4885;SDS011;2457;51.788;6.136;2023-03-29T14:40:19;6.47;;;3.07;;
4885;SDS011;2457;51.788;6.136;2023-03-29T14:42:47;10.80;;;2.70;;
4885;SDS011;2457;51.788;6.136;2023-03-29T14:45:16;8.20;;;2.80;;
4885;SDS011;2457;51.788;6.136;2023-03-29T14:47:43;7.60;;;3.03;;
4885;SDS011;2457;51.788;6.136;2023-03-29T14:50:16;6.33;;;3.10;;
4885;SDS011;2457;51.788;6.136;2023-03-29T14:52:44;6.60;;;3.03;;
4885;SDS011;2457;51.788;6.136;2023-03-29T14:55:12;7.17;;;3.07;;
4885;SDS011;2457;51.788;6.136;2023-03-29T14:57:41;8.00;;;2.97;;
4885;SDS011;2457;51.788;6.136;2023-03-29T15:00:20;12.50;;;3.13;;
4885;SDS011;2457;51.788;6.136;2023-03-29T15:02:52;7.00;;;2.93;;
4885;SDS011;2457;51.788;6.136;2023-03-29T15:05:51;7.43;;;3.13;;
4885;SDS011;2457;51.788;6.136;2023-03-29T15:07:51;6.10;;;2.87;;
4885;SDS011;2457;51.788;6.136;2023-03-29T15:10:20;7.13;;;2.67;;
4885;SDS011;2457;51.788;6.136;2023-03-29T15:12:47;10.13;;;2.77;;
4885;SDS011;2457;51.788;6.136;2023-03-29T15:15:15;7.33;;;2.50;;
4885;SDS011;2457;51.788;6.136;2023-03-29T15:17:42;7.63;;;2.47;;
4885;SDS011;2457;51.788;6.136;2023-03-29T15:20:15;5.10;;;1.97;;
4885;SDS011;2457;51.788;6.136;2023-03-29T15:22:59;10.63;;;2.50;;
4885;SDS011;2457;51.788;6.136;2023-03-29T15:25:25;6.07;;;1.97;;
4885;SDS011;2457;51.788;6.136;2023-03-29T15:27:53;5.23;;;1.90;;
4885;SDS011;2457;51.788;6.136;2023-03-29T15:30:27;4.90;;;1.80;;
4885;SDS011;2457;51.788;6.136;2023-03-29T15:32:49;5.70;;;2.40;;
4885;SDS011;2457;51.788;6.136;2023-03-29T15:35:22;5.83;;;2.80;;
4885;SDS011;2457;51.788;6.136;2023-03-29T15:37:48;5.83;;;2.10;;
4885;SDS011;2457;51.788;6.136;2023-03-29T15:40:16;10.57;;;2.20;;
4885;SDS011;2457;51.788;6.136;2023-03-29T15:42:44;6.77;;;2.43;;
4885;SDS011;2457;51.788;6.136;2023-03-29T15:45:15;4.90;;;2.20;;
4885;SDS011;2457;51.788;6.136;2023-03-29T15:47:43;6.57;;;2.70;;
4885;SDS011;2457;51.788;6.136;2023-03-29T15:50:11;9.10;;;2.60;;
4885;SDS011;2457;51.788;6.136;2023-03-29T15:52:40;8.40;;;2.47;;
4885;SDS011;2457;51.788;6.136;2023-03-29T15:55:08;7.30;;;2.53;;
4885;SDS011;2457;51.788;6.136;2023-03-29T15:57:35;7.07;;;2.33;;
4885;SDS011;2457;51.788;6.136;2023-03-29T16:00:03;5.50;;;2.27;;
4885;SDS011;2457;51.788;6.136;2023-03-29T16:02:33;5.60;;;2.23;;
4885;SDS011;2457;51.788;6.136;2023-03-29T16:05:00;6.93;;;2.57;;
4885;SDS011;2457;51.788;6.136;2023-03-29T16:07:28;6.27;;;2.30;;
4885;SDS011;2457;51.788;6.136;2023-03-29T16:09:55;5.50;;;2.30;;
4885;SDS011;2457;51.788;6.136;2023-03-29T16:12:23;7.00;;;2.33;;
4885;SDS011;2457;51.788;6.136;2023-03-29T16:14:50;10.10;;;2.90;;
4885;SDS011;2457;51.788;6.136;2023-03-29T16:17:17;5.70;;;2.50;;
4885;SDS011;2457;51.788;6.136;2023-03-29T16:19:45;5.43;;;2.37;;
4885;SDS011;2457;51.788;6.136;2023-03-29T16:22:12;6.07;;;2.30;;
4885;SDS011;2457;51.788;6.136;2023-03-29T16:24:39;5.80;;;2.60;;
4885;SDS011;2457;51.788;6.136;2023-03-29T16:27:07;7.17;;;2.50;;